首页
METAR-TAF:

METAR-TAF

机场 :

楠府機場

Nan, 泰国

纬度: 18-46N, 经度: 100-46E, 海拔: 200米

当前天气观测

该预报发布于1小时和13分钟前的12:00 UTC
风速6节,风向南转西南,在西南之间变化
温度 32°C
湿度 63%
气压 1003 hPa
能见度10公里或以上
少量云层高于2500英尺

METAR: VTCN 201200Z 20006KT 170V230 9999 FEW025 32/24 Q1003 NOSIG

时间: 20:13 (13:13 UTC)

预报

该预报发布于2小时和13分钟前的11:00 UTC
预报有效从20日的 12点(UTC)到 21日的 12点(UTC)
风速5节,风向
能见度10公里或以上
散云层高于2500英尺

TAF: VTCN 201100Z 2012/2112 18005KT 9999 SCT025

超过4000个机场的气象观测和天气预报(METAR&TAF报告)。

可查询的气象台以黄色和红色小点在地图上表示。

将鼠标移到小点上方,可查看气象台名称。

然后点击查看天气观测和预报。

如需切换地图:点击带黑十字的绿色按钮放大地图;点击带横线的绿色按钮缩小地图;或者点击绿色箭头查看邻近地区的地图。


METAR-TAF: